Time;durP1;ratioP1;P1;durP2;ratioP2;P2;SDS_P1;SDS_P2;PMS_P1;PMS_P2;Temp;Humidity;BMP_temperature;BMP_pressure;BME280_temperature;BME280_humidity;BME280_pressure;Samples;Min_cycle;Max_cycle;Signal;HPM_P1;HPM_P2
2022/10/22 00:02:26;;;;;;;30.83;20.67;;;;;;;29.42;72.37;101099.22;5068207;28;67054;-39
2022/10/22 00:04:57;;;;;;;27.85;20.13;;;;;;;29.56;72.96;101119.84;5065373;28;70612;-41
2022/10/22 00:07:27;;;;;;;32.30;20.65;;;;;;;29.60;72.59;101129.22;5067124;28;66485;-37
2022/10/22 00:09:58;;;;;;;34.30;20.73;;;;;;;29.60;73.41;101138.16;5059874;28;69521;-37
2022/10/22 00:12:28;;;;;;;30.08;20.23;;;;;;;29.57;73.44;101126.94;5060071;28;65375;-37
2022/10/22 00:14:58;;;;;;;24.90;18.90;;;;;;;29.58;72.75;101131.28;5062342;28;69456;-38
2022/10/22 00:17:30;;;;;;;24.25;19.02;;;;;;;29.55;73.34;101131.69;5061303;28;65687;-38
2022/10/22 00:20:00;;;;;;;52.92;24.77;;;;;;;29.77;69.92;101152.13;5062318;28;70049;-35
2022/10/22 00:22:31;;;;;;;42.10;24.52;;;;;;;29.81;70.12;101156.09;5064972;28;65677;-38
2022/10/22 00:25:01;;;;;;;28.80;21.63;;;;;;;29.83;70.33;101161.28;5065492;28;70144;-40
2022/10/22 00:27:31;;;;;;;30.10;22.02;;;;;;;29.89;69.87;101159.63;5072839;28;65779;-39
2022/10/22 00:30:02;;;;;;;26.35;20.50;;;;;;;29.88;69.03;101153.41;5052647;28;70090;-38
2022/10/22 00:32:33;;;;;;;30.58;20.40;;;;;;;29.97;68.52;101167.53;5072166;28;66666;-37
2022/10/22 00:35:04;;;;;;;35.50;18.60;;;;;;;29.95;68.42;101161.50;5072775;27;69096;-38
2022/10/22 00:37:35;;;;;;;26.13;19.42;;;;;;;29.98;69.89;101163.81;5062982;28;66665;-38
2022/10/22 00:40:05;;;;;;;25.98;19.35;;;;;;;30.05;69.76;101165.47;5066960;28;69540;-38
2022/10/22 00:42:36;;;;;;;22.75;16.70;;;;;;;30.06;68.97;101171.69;5056157;28;66374;-37
2022/10/22 00:45:10;;;;;;;28.07;17.90;;;;;;;30.12;69.02;101168.19;5062235;28;69800;-37
2022/10/22 00:47:42;;;;;;;27.05;17.85;;;;;;;29.78;68.72;101110.56;5057676;28;65177;-37
2022/10/22 00:50:35;;;;;;;28.38;17.15;;;;;;;30.20;69.20;101167.97;5065037;28;70260;-37
2022/10/22 00:53:22;;;;;;;18.02;16.17;;;;;;;30.21;68.96;101163.41;5028903;27;66127;-38
2022/10/22 00:55:53;;;;;;;21.08;17.65;;;;;;;30.01;74.39;101163.41;5062614;28;70278;-37
2022/10/22 00:58:28;;;;;;;24.85;17.42;;;;;;;30.11;74.66;101174.63;5056140;28;66420;-37
2022/10/22 01:00:58;;;;;;;24.65;17.13;;;;;;;30.06;75.66;101167.16;5067848;28;70311;-37
2022/10/22 01:03:30;;;;;;;18.35;15.60;;;;;;;30.08;75.56;101175.03;5055815;28;66597;-37
2022/10/22 01:06:04;;;;;;;19.23;15.70;;;;;;;29.57;75.24;101097.19;5069289;28;70020;-38
2022/10/22 01:08:59;;;;;;;17.52;15.73;;;;;;;29.99;76.06;101181.72;5056428;28;66370;-37
2022/10/22 01:11:57;;;;;;;20.85;15.88;;;;;;;29.99;76.27;101179.81;5060494;28;70271;-38
2022/10/22 01:14:38;;;;;;;19.73;15.50;;;;;;;29.61;75.97;101120.06;5061935;27;66256;-37
2022/10/22 01:17:13;;;;;;;19.98;16.05;;;;;;;30.04;76.20;101193.56;5060536;28;69548;-38
2022/10/22 01:22:38;;;;;;;19.45;15.93;;;;;;;30.55;73.89;101192.13;5129397;27;43893;-39
2022/10/22 01:25:31;;;;;;;16.98;15.10;;;;;;;30.12;75.75;101180.88;5127199;27;69731;-39
2022/10/22 01:28:19;;;;;;;16.70;14.98;;;;;;;30.10;76.08;101199.19;5133825;27;66643;-37
2022/10/22 01:30:53;;;;;;;16.05;14.48;;;;;;;29.76;76.41;101134.25;5129470;27;70339;-39
2022/10/22 01:33:25;;;;;;;16.58;14.98;;;;;;;29.63;76.10;101112.59;5132745;27;66588;-36
2022/10/22 01:35:58;;;;;;;;;;;;;;;29.90;77.34;101196.47;5121510;27;70083;-37
2022/10/22 01:38:30;;;;;;;17.02;14.95;;;;;;;30.06;76.20;101196.06;5127640;27;66791;-38
2022/10/22 01:41:01;;;;;;;15.93;14.23;;;;;;;30.15;76.59;101202.94;5131693;27;71059;-38
2022/10/22 01:43:32;;;;;;;16.38;14.75;;;;;;;30.04;74.85;101185.47;5119528;27;66515;-38
2022/10/22 01:46:05;;;;;;;16.75;15.20;;;;;;;29.78;76.14;101143.00;5130963;27;70620;-38
2022/10/22 01:48:47;;;;;;;16.90;15.27;;;;;;;30.21;76.18;101210.22;5126940;27;66796;-38
2022/10/22 01:51:34;;;;;;;16.83;15.23;;;;;;;30.21;75.67;101217.50;5130880;27;69359;-37
2022/10/22 01:54:24;;;;;;;16.27;14.88;;;;;;;30.18;75.99;101221.47;5131431;27;66516;-36
2022/10/22 01:57:12;;;;;;;15.43;14.10;;;;;;;30.19;76.43;101220.41;5121834;27;70011;-38
2022/10/22 02:00:01;;;;;;;15.85;14.45;;;;;;;30.21;76.10;101225.63;5103799;27;66028;-39
2022/10/22 02:03:03;;;;;;;15.57;14.27;;;;;;;29.79;76.16;101155.47;5099993;27;70121;-39
2022/10/22 02:05:53;;;;;;;15.27;14.07;;;;;;;29.85;75.54;101153.81;5102677;27;66885;-38
2022/10/22 02:08:29;;;;;;;15.38;13.95;;;;;;;30.22;75.94;101203.78;5117243;27;70357;-39
2022/10/22 02:11:01;;;;;;;15.98;14.13;;;;;;;30.32;75.73;101216.09;5104401;27;66026;-38
2022/10/22 02:13:41;;;;;;;14.73;13.52;;;;;;;30.25;75.70;101210.66;5108232;27;69444;-37
2022/10/22 02:16:17;;;;;;;15.43;13.93;;;;;;;30.33;75.82;101225.88;5095647;27;66164;-39
2022/10/22 02:18:52;;;;;;;16.15;14.80;;;;;;;30.35;75.96;101223.78;5110163;27;69828;-37
2022/10/22 02:21:23;;;;;;;14.27;13.00;;;;;;;30.35;76.15;101229.22;5103467;27;65653;-37
2022/10/22 02:23:53;;;;;;;15.50;13.60;;;;;;;30.26;75.69;101215.88;5101115;27;70530;-41
2022/10/22 02:26:33;;;;;;;15.10;13.80;;;;;;;29.79;75.37;101133.84;5101688;27;66036;-37
2022/10/22 02:29:30;;;;;;;13.98;12.95;;;;;;;30.21;75.91;101218.34;5107740;27;70219;-36
2022/10/22 02:32:02;;;;;;;13.15;12.20;;;;;;;30.46;75.05;101242.94;5098383;27;66440;-37
2022/10/22 02:34:33;;;;;;;13.05;12.13;;;;;;;30.43;75.32;101234.41;5091085;27;69435;-38
2022/10/22 02:37:05;;;;;;;12.50;11.70;;;;;;;30.04;75.57;101173.81;5093049;27;66006;-37
2022/10/22 02:39:38;;;;;;;13.25;12.27;;;;;;;30.49;75.06;101245.22;5083891;27;69233;-38
2022/10/22 02:42:10;;;;;;;12.25;11.48;;;;;;;30.42;74.79;101225.47;5089431;27;65335;-38
2022/10/22 02:44:41;;;;;;;13.23;12.25;;;;;;;30.54;74.92;101244.59;5087920;27;69978;-37
2022/10/22 02:47:11;;;;;;;12.93;11.80;;;;;;;30.43;75.14;101231.69;5091063;27;64765;-38
2022/10/22 02:49:42;;;;;;;13.07;12.02;;;;;;;30.55;75.25;101240.84;5091086;27;69963;-36
2022/10/22 02:52:13;;;;;;;12.27;11.38;;;;;;;30.59;73.86;101244.81;5087523;27;66701;-36
2022/10/22 02:54:43;;;;;;;14.30;12.23;;;;;;;30.56;74.80;101252.50;5095774;27;70557;-37
2022/10/22 02:57:14;;;;;;;11.90;11.00;;;;;;;30.57;74.52;101246.88;5121082;27;66236;-37
2022/10/22 02:59:44;;;;;;;12.73;11.75;;;;;;;30.57;74.53;101246.88;5114639;27;68510;-36
2022/10/22 03:02:15;;;;;;;12.00;11.25;;;;;;;30.49;74.73;101233.56;5118466;27;66251;-36
2022/10/22 03:04:45;;;;;;;12.13;11.30;;;;;;;30.60;74.51;101243.75;5098816;27;70132;-36
2022/10/22 03:07:16;;;;;;;11.52;10.63;;;;;;;30.55;74.24;101240.84;5095663;27;65410;-37
2022/10/22 03:09:47;;;;;;;12.18;11.18;;;;;;;30.59;73.99;101239.41;5097778;27;69126;-36
2022/10/22 03:12:17;;;;;;;12.40;11.27;;;;;;;30.61;74.11;101229.16;5103083;27;65384;-36
2022/10/22 03:14:48;;;;;;;11.18;10.27;;;;;;;30.31;73.75;101179.22;5107291;27;70190;-36
2022/10/22 03:17:18;;;;;;;12.07;11.23;;;;;;;30.60;73.99;101224.81;5107729;27;65460;-43
2022/10/22 03:19:49;;;;;;;12.00;11.00;;;;;;;30.64;74.01;101215.22;5093169;27;69502;-37
2022/10/22 03:22:26;;;;;;;10.82;10.13;;;;;;;30.55;73.67;101200.22;5088496;27;66560;-37
2022/10/22 03:25:06;;;;;;;11.50;10.35;;;;;;;30.65;73.52;101216.88;5087005;27;69865;-36
2022/10/22 03:27:39;;;;;;;10.90;10.05;;;;;;;30.62;73.62;101203.78;5091454;27;66788;-36
2022/10/22 03:30:12;;;;;;;12.15;10.82;;;;;;;30.60;73.84;101194.19;5087598;27;70243;-35
2022/10/22 03:32:43;;;;;;;11.48;10.40;;;;;;;30.67;73.81;101209.41;5090683;27;66370;-37
2022/10/22 03:35:14;;;;;;;10.18;9.57;;;;;;;30.71;73.58;101198.97;5098601;27;70134;-37
2022/10/22 03:37:44;;;;;;;10.27;9.68;;;;;;;30.71;73.65;101194.38;5104264;27;66234;-35
2022/10/22 03:40:15;;;;;;;10.98;10.02;;;;;;;30.58;73.46;101175.44;5104639;27;70602;-35
2022/10/22 03:42:45;;;;;;;13.02;10.70;;;;;;;30.76;73.16;101201.03;5100148;27;65941;-37
2022/10/22 03:45:16;;;;;;;10.68;9.98;;;;;;;30.70;73.12;101194.56;5097786;27;70512;-36
2022/10/22 03:47:47;;;;;;;11.88;10.82;;;;;;;30.77;73.10;101200.81;5084366;27;66250;-37
2022/10/22 03:50:18;;;;;;;10.65;9.95;;;;;;;30.72;72.95;101193.31;5084579;27;70281;-37
2022/10/22 03:52:48;;;;;;;9.82;9.20;;;;;;;30.78;72.98;101196.22;5085793;27;66246;-37
2022/10/22 03:55:19;;;;;;;11.77;9.93;;;;;;;30.80;73.44;101196.88;5089319;27;70263;-37
2022/10/22 03:57:49;;;;;;;10.93;10.20;;;;;;;30.78;72.79;101186.22;5086279;27;65379;-35
2022/10/22 04:00:20;;;;;;;11.90;10.80;;;;;;;30.79;72.80;101176.25;5086512;27;69890;-36
2022/10/22 04:02:50;;;;;;;11.20;10.35;;;;;;;30.97;72.22;101189.97;5087992;27;65985;-37
2022/10/22 04:05:20;;;;;;;10.13;9.52;;;;;;;31.01;71.75;101172.25;5099933;27;70200;-37
2022/10/22 04:07:51;;;;;;;11.77;10.57;;;;;;;31.18;71.43;101186.13;5092377;27;66589;-37
2022/10/22 04:10:21;;;;;;;11.27;10.35;;;;;;;31.25;70.90;101170.66;5091098;27;69777;-38
2022/10/22 04:12:52;;;;;;;11.18;10.15;;;;;;;31.31;70.57;101168.97;5099670;27;65710;-36
2022/10/22 04:15:25;;;;;;;10.93;9.93;;;;;;;31.35;70.35;101159.38;5100635;27;71375;-38
2022/10/22 04:17:56;;;;;;;11.75;10.73;;;;;;;31.40;70.11;101151.44;5102239;27;66378;-37
2022/10/22 04:20:26;;;;;;;12.27;11.30;;;;;;;31.29;69.96;101127.72;5107694;27;70706;-37
2022/10/22 04:22:56;;;;;;;11.40;10.45;;;;;;;31.47;69.83;101135.97;5100101;27;65873;-36
2022/10/22 04:25:27;;;;;;;11.63;10.70;;;;;;;31.49;69.45;101128.44;5111473;27;70105;-35
2022/10/22 04:27:57;;;;;;;11.70;10.77;;;;;;;31.52;69.38;101117.16;5116489;27;66164;-36
2022/10/22 04:30:28;;;;;;;14.10;11.35;;;;;;;31.54;69.17;101115.06;5111006;27;70163;-35
2022/10/22 04:32:59;;;;;;;12.90;10.82;;;;;;;31.58;68.59;101110.03;5119291;27;65333;-35
2022/10/22 04:35:29;;;;;;;13.68;11.02;;;;;;;31.59;69.03;101101.69;5100644;27;70129;-37
2022/10/22 04:37:59;;;;;;;11.30;10.10;;;;;;;31.63;68.54;101106.66;5108584;27;65422;-36
2022/10/22 04:40:30;;;;;;;11.35;10.32;;;;;;;31.64;68.69;101092.88;5096506;27;70104;-43
2022/10/22 04:43:00;;;;;;;11.38;10.60;;;;;;;31.67;68.65;101094.31;5103596;27;66341;-37
2022/10/22 04:45:35;;;;;;;11.52;10.50;;;;;;;31.66;68.09;101096.19;5103952;27;70162;-36
2022/10/22 04:48:06;;;;;;;9.98;9.35;;;;;;;31.68;68.57;101083.25;5096735;27;65618;-36
2022/10/22 04:50:36;;;;;;;11.35;10.18;;;;;;;31.72;68.77;101078.22;5094396;27;69326;-37
2022/10/22 04:53:07;;;;;;;11.32;10.48;;;;;;;31.74;68.55;101082.38;5104944;27;66214;-37
2022/10/22 04:55:37;;;;;;;11.20;10.30;;;;;;;31.76;68.57;101074.84;5091199;27;69546;-35
2022/10/22 04:58:08;;;;;;;10.40;9.40;;;;;;;31.79;68.46;101068.16;5100917;27;66265;-36
2022/10/22 05:00:38;;;;;;;11.35;10.35;;;;;;;31.80;68.31;101064.38;5106670;27;69972;-36
2022/10/22 05:03:08;;;;;;;10.13;9.27;;;;;;;31.81;68.22;101047.84;5096266;27;66454;-38
2022/10/22 05:05:39;;;;;;;10.88;9.88;;;;;;;31.85;67.93;101050.97;5094661;27;70484;-38
2022/10/22 05:08:10;;;;;;;12.23;10.95;;;;;;;31.88;68.30;101044.28;5101407;27;66363;-38
2022/10/22 05:10:40;;;;;;;12.23;10.52;;;;;;;31.88;68.36;101028.00;5094842;27;70441;-38
2022/10/22 05:13:10;;;;;;;11.02;10.20;;;;;;;31.92;67.85;101035.47;5097765;27;66157;-38
2022/10/22 05:15:41;;;;;;;11.45;10.13;;;;;;;31.95;67.80;101018.75;5081042;27;69815;-37
2022/10/22 05:18:12;;;;;;;11.40;10.35;;;;;;;31.97;67.63;101019.38;5106816;27;65921;-36
2022/10/22 05:20:45;;;;;;;10.73;9.80;;;;;;;31.99;67.57;101014.56;5101882;27;70196;-38
2022/10/22 05:23:15;;;;;;;10.15;9.13;;;;;;;32.02;67.44;101003.25;5100934;27;66381;-38
2022/10/22 05:25:46;;;;;;;11.10;10.00;;;;;;;32.04;67.26;101000.31;5101674;27;70157;-37
2022/10/22 05:28:16;;;;;;;10.60;9.70;;;;;;;32.05;67.49;100996.53;5100206;27;65166;-37
2022/10/22 05:30:54;;;;;;;9.60;9.07;;;;;;;31.53;67.26;100898.38;5099426;27;70401;-37
2022/10/22 05:33:26;;;;;;;10.73;9.93;;;;;;;32.08;67.34;100984.41;5101551;27;66584;-37
2022/10/22 05:35:56;;;;;;;10.32;9.25;;;;;;;31.95;67.31;100958.25;5105331;27;69007;-37
2022/10/22 05:38:27;;;;;;;9.82;9.13;;;;;;;32.01;67.45;100958.19;5105236;27;65683;-36
2022/10/22 05:41:03;;;;;;;10.63;9.73;;;;;;;32.10;66.54;100966.84;5107041;27;70001;-37
2022/10/22 05:43:34;;;;;;;11.80;9.73;;;;;;;32.11;67.09;100959.53;5103809;27;65233;-37
2022/10/22 05:46:26;;;;;;;10.20;9.15;;;;;;;32.01;66.78;100941.91;5102432;27;70390;-37
2022/10/22 05:49:13;;;;;;;10.93;9.93;;;;;;;32.12;66.72;100942.19;5109126;27;66151;-37
2022/10/22 05:51:43;;;;;;;10.10;9.35;;;;;;;32.14;66.70;100929.22;5105089;27;70391;-36
2022/10/22 05:54:21;;;;;;;12.57;10.15;;;;;;;31.70;66.58;100852.50;5092398;27;66294;-37
2022/10/22 05:56:51;;;;;;;10.77;9.85;;;;;;;32.21;66.46;100919.13;5104254;27;70046;-37
2022/10/22 05:59:21;;;;;;;10.55;9.57;;;;;;;32.22;66.40;100915.34;5102238;27;65639;-37
2022/10/22 06:01:52;;;;;;;11.38;10.20;;;;;;;32.25;66.44;100912.16;5104166;27;70140;-37
2022/10/22 06:04:22;;;;;;;10.50;9.60;;;;;;;32.25;66.59;100910.28;5102129;27;65461;-37
2022/10/22 06:06:53;;;;;;;15.15;10.57;;;;;;;32.25;66.42;100893.16;5102967;27;71577;-37
2022/10/22 06:09:40;;;;;;;10.25;9.32;;;;;;;32.26;66.53;100884.81;5090996;27;66388;-37
2022/10/22 06:12:12;;;;;;;10.63;9.52;;;;;;;32.28;66.28;100887.28;5099339;27;70985;-37
2022/10/22 06:14:44;;;;;;;9.90;9.00;;;;;;;32.31;66.43;100886.00;5102951;27;65919;-36
2022/10/22 06:17:15;;;;;;;10.27;9.50;;;;;;;32.30;66.58;100878.91;5116469;27;69204;-37
2022/10/22 06:19:57;;;;;;;11.93;9.10;;;;;;;32.30;66.32;100874.31;5098671;27;66492;-37
2022/10/22 06:22:28;;;;;;;11.35;9.13;;;;;;;32.32;66.17;100872.19;5118803;27;71064;-36
2022/10/22 06:24:58;;;;;;;12.13;10.30;;;;;;;32.28;66.46;100860.13;5113281;27;66918;-37
2022/10/22 06:27:29;;;;;;;13.45;9.02;;;;;;;32.32;66.10;100857.78;5098272;27;70516;-37
2022/10/22 06:30:04;;;;;;;10.35;9.30;;;;;;;32.36;66.30;100854.38;5113422;27;66277;-37
2022/10/22 06:32:35;;;;;;;10.27;9.18;;;;;;;32.28;66.48;100835.72;5093019;27;69091;-37
2022/10/22 06:35:07;;;;;;;10.50;9.60;;;;;;;32.35;66.16;100841.88;5093200;27;66257;-36
2022/10/22 06:37:37;;;;;;;10.07;9.15;;;;;;;32.40;66.33;100841.16;5097504;27;69550;-37
2022/10/22 06:40:09;;;;;;;10.23;9.23;;;;;;;32.39;66.19;100829.47;5092334;27;66036;-36
2022/10/22 06:42:40;;;;;;;9.98;9.18;;;;;;;32.41;66.12;100826.56;5083673;27;70035;-36
2022/10/22 06:45:11;;;;;;;11.25;9.60;;;;;;;32.40;66.09;100803.16;5090599;27;65392;-36
2022/10/22 06:47:41;;;;;;;12.52;9.40;;;;;;;32.40;65.89;100809.44;5086239;27;70513;-36
2022/10/22 06:50:12;;;;;;;12.23;9.88;;;;;;;32.44;65.81;100816.03;5085921;27;65408;-37
2022/10/22 06:52:43;;;;;;;10.25;9.27;;;;;;;32.39;65.79;100807.75;5086022;27;69968;-36
2022/10/22 06:55:13;;;;;;;12.60;9.52;;;;;;;32.45;66.02;100806.81;5088201;27;66445;-37
2022/10/22 06:57:44;;;;;;;10.88;8.93;;;;;;;32.45;65.97;100795.16;5090028;27;69675;-36
2022/10/22 07:00:15;;;;;;;10.23;9.35;;;;;;;32.44;66.19;100791.59;5096100;27;66184;-37
2022/10/22 07:02:51;;;;;;;10.57;9.52;;;;;;;32.10;66.71;100776.06;5100949;27;70175;-36
2022/10/22 07:05:27;;;;;;;;;;;;;;;31.75;68.61;100774.00;5101916;27;66068;-37
2022/10/22 07:08:14;;;;;;;14.90;9.00;;;;;;;31.94;68.50;100778.38;5088077;27;70568;-36
2022/10/22 07:10:45;;;;;;;9.95;9.00;;;;;;;31.87;67.79;100766.72;5088891;27;66276;-38
2022/10/22 07:13:16;;;;;;;12.20;8.55;;;;;;;31.74;66.39;100762.34;5091955;27;70323;-38
2022/10/22 07:15:53;;;;;;;22.23;7.95;;;;;;;31.54;65.83;100754.47;5085001;27;65501;-36
2022/10/22 07:18:26;;;;;;;8.73;7.95;;;;;;;31.53;65.14;100757.38;5082305;27;69957;-36
2022/10/22 07:20:57;;;;;;;8.05;7.45;;;;;;;31.36;63.93;100754.47;5083276;27;66851;-37
2022/10/22 07:23:28;;;;;;;10.05;7.28;;;;;;;31.40;63.75;100761.09;5082983;27;69580;-37
2022/10/22 07:26:01;;;;;;;7.63;7.00;;;;;;;31.26;62.69;100764.97;5084846;27;64835;-37
2022/10/22 07:28:32;;;;;;;10.30;6.97;;;;;;;31.21;61.99;100752.13;5081642;27;70170;-37
2022/10/22 07:31:03;;;;;;;7.55;6.68;;;;;;;31.21;61.85;100754.00;5084197;27;66817;-37
2022/10/22 07:33:34;;;;;;;7.30;6.27;;;;;;;31.14;60.96;100754.06;5085388;27;70531;-36
2022/10/22 07:36:07;;;;;;;6.43;6.03;;;;;;;31.13;60.55;100745.09;5092525;27;66239;-38
2022/10/22 07:38:43;;;;;;;6.65;6.15;;;;;;;31.09;59.54;100743.06;5098027;27;70003;-37
2022/10/22 07:41:16;;;;;;;6.82;6.00;;;;;;;31.08;58.82;100746.84;5096729;27;65619;-37
2022/10/22 07:43:47;;;;;;;6.63;6.22;;;;;;;31.04;58.73;100730.22;5101772;27;70139;-38
2022/10/22 07:46:19;;;;;;;6.30;5.80;;;;;;;31.10;57.88;100745.56;5093104;27;65568;-44
2022/10/22 07:48:49;;;;;;;5.63;5.23;;;;;;;31.07;57.79;100745.19;5102069;27;70128;-36
2022/10/22 07:51:20;;;;;;;5.60;5.20;;;;;;;31.05;57.30;100742.69;5089480;27;66070;-36
2022/10/22 07:53:51;;;;;;;5.53;5.03;;;;;;;30.93;56.85;100714.72;5084505;27;69407;-38
2022/10/22 07:56:21;;;;;;;5.47;4.97;;;;;;;31.07;56.36;100737.88;5088662;27;66364;-38
2022/10/22 07:58:52;;;;;;;5.25;4.85;;;;;;;31.03;56.20;100728.53;5084997;27;69184;-38
2022/10/22 08:01:23;;;;;;;5.57;5.17;;;;;;;31.04;56.18;100734.81;5091939;27;66151;-37
2022/10/22 08:03:54;;;;;;;4.93;4.63;;;;;;;30.98;55.75;100731.13;5082643;27;70558;-38
2022/10/22 08:06:25;;;;;;;5.70;5.28;;;;;;;31.03;55.41;100728.53;5083473;27;66003;-39
2022/10/22 08:08:55;;;;;;;5.25;4.85;;;;;;;31.02;55.14;100726.88;5081253;27;70428;-36
2022/10/22 08:11:26;;;;;;;11.32;5.10;;;;;;;31.04;54.42;100729.38;5083860;27;66586;-36
2022/10/22 08:13:57;;;;;;;5.07;4.70;;;;;;;31.02;54.50;100710.63;5080252;27;70361;-37
2022/10/22 08:16:29;;;;;;;5.50;5.03;;;;;;;31.00;53.84;100720.88;5088159;27;65416;-36
2022/10/22 08:18:59;;;;;;;5.30;4.85;;;;;;;31.03;54.68;100717.69;5093264;27;70396;-38
2022/10/22 08:21:30;;;;;;;5.47;4.97;;;;;;;30.95;53.75;100709.88;5082774;27;65539;-36
2022/10/22 08:24:01;;;;;;;5.20;4.80;;;;;;;30.90;53.24;100691.59;5084198;27;70344;-38
2022/10/22 08:26:31;;;;;;;4.50;4.20;;;;;;;31.06;53.35;100711.81;5093203;27;65743;-36
2022/10/22 08:29:02;;;;;;;4.75;4.45;;;;;;;30.96;52.81;100700.72;5088373;27;69706;-37
2022/10/22 08:31:34;;;;;;;6.40;4.68;;;;;;;31.05;52.60;100699.34;5082779;27;65671;-35
2022/10/22 08:34:04;;;;;;;4.97;4.67;;;;;;;31.06;52.48;100695.56;5092322;27;70589;-37
2022/10/22 08:36:35;;;;;;;5.97;4.70;;;;;;;31.03;53.48;100674.34;5082394;27;66919;-36
2022/10/22 08:39:06;;;;;;;5.82;5.25;;;;;;;31.27;55.58;100696.19;5086632;27;70100;-36
2022/10/22 08:41:48;;;;;;;6.38;4.90;;;;;;;30.91;56.40;100632.84;5082829;27;66676;-36
2022/10/22 08:44:58;;;;;;;6.82;4.78;;;;;;;31.00;56.73;100634.19;5082419;27;70333;-38
2022/10/22 08:47:54;;;;;;;10.50;6.18;;;;;;;31.50;60.08;100700.91;5084459;27;65824;-37
2022/10/22 08:50:37;;;;;;;15.35;7.30;;;;;;;31.15;61.51;100617.56;5073338;27;70048;-38
2022/10/22 08:53:17;;;;;;;14.43;7.53;;;;;;;31.32;62.91;100617.75;5083473;27;66714;-37
2022/10/22 08:55:51;;;;;;;10.00;8.95;;;;;;;31.85;63.95;100702.94;5081638;27;69681;-38
2022/10/22 08:59:04;;;;;;;19.33;9.80;;;;;;;31.31;64.09;100597.09;5089021;27;65436;-37
2022/10/22 09:01:39;;;;;;;12.23;10.00;;;;;;;31.93;64.49;100679.06;5074411;27;70057;-37
2022/10/22 09:04:37;;;;;;;18.75;10.40;;;;;;;32.10;64.31;100694.66;5083935;27;66119;-38
2022/10/22 09:07:09;;;;;;;15.27;10.55;;;;;;;32.09;65.04;100682.16;5086671;27;69276;-39
2022/10/22 09:09:47;;;;;;;14.20;9.82;;;;;;;32.15;64.98;100692.06;5089477;27;65721;-38
2022/10/22 09:12:19;;;;;;;13.05;9.60;;;;;;;32.11;64.92;100680.03;5086938;27;70068;-37
2022/10/22 09:14:50;;;;;;;10.07;9.05;;;;;;;32.17;64.99;100685.34;5092662;27;65534;-38
2022/10/22 09:17:32;;;;;;;14.48;9.88;;;;;;;32.13;65.05;100680.63;5086093;27;70470;-37
2022/10/22 09:20:15;;;;;;;12.05;10.13;;;;;;;31.90;65.58;100656.94;5087260;27;65400;-37
2022/10/22 09:23:05;;;;;;;13.07;9.70;;;;;;;32.18;65.81;100703.28;5096293;27;69676;-37
2022/10/22 09:25:36;;;;;;;11.25;10.15;;;;;;;32.08;65.51;100697.59;5104443;27;66258;-36
2022/10/22 09:28:09;;;;;;;13.32;10.82;;;;;;;32.20;66.13;100716.63;5096628;27;70436;-37
2022/10/22 09:30:40;;;;;;;12.85;11.65;;;;;;;32.21;66.27;100712.84;5117174;27;66378;-38
2022/10/22 09:33:14;;;;;;;13.77;10.33;;;;;;;32.45;65.44;100719.94;5089724;27;69863;-38
2022/10/22 09:35:54;;;;;;;11.30;10.23;;;;;;;32.23;65.12;100662.72;5085189;27;65398;-39
2022/10/22 09:38:28;;;;;;;13.20;10.55;;;;;;;32.23;64.69;100642.88;5100587;27;69742;-37
2022/10/22 09:41:04;;;;;;;11.98;10.60;;;;;;;31.95;66.73;100644.38;5103823;27;66289;-38
2022/10/22 09:43:35;;;;;;;14.35;11.50;;;;;;;32.43;67.48;100734.81;5085832;27;69436;-37
2022/10/22 09:46:28;;;;;;;15.90;11.40;;;;;;;32.33;68.06;100729.97;5107127;27;66437;-37
2022/10/22 09:49:10;;;;;;;13.02;10.75;;;;;;;32.35;68.63;100725.16;5102852;27;70206;-38
2022/10/22 09:51:47;;;;;;;;;;;;;;;32.13;69.55;100732.19;5089598;27;67047;-36
2022/10/22 09:54:24;;;;;;;16.38;11.32;;;;;;;32.58;67.22;100739.84;5088980;27;69851;-38
2022/10/22 09:57:03;;;;;;;14.52;11.20;;;;;;;32.74;67.41;100741.03;5098100;27;65995;-37
2022/10/22 09:59:40;;;;;;;14.10;10.88;;;;;;;32.85;66.79;100735.59;5101839;27;70385;-37
2022/10/22 10:02:26;;;;;;;15.45;11.02;;;;;;;32.96;66.50;100730.34;5112323;27;65973;-37
2022/10/22 10:05:17;;;;;;;16.85;11.43;;;;;;;33.00;66.00;100731.59;5099026;27;70594;-37
2022/10/22 10:07:47;;;;;;;12.82;11.32;;;;;;;33.02;66.20;100727.56;5086601;27;65711;-37
2022/10/22 10:10:33;;;;;;;17.00;10.85;;;;;;;32.65;66.88;100672.63;5104068;27;70323;-38
2022/10/22 10:13:07;;;;;;;21.52;11.50;;;;;;;33.11;67.01;100739.72;5099920;27;66367;-37
2022/10/22 10:16:03;;;;;;;20.52;12.80;;;;;;;32.65;68.73;100726.94;5092714;27;70725;-37
2022/10/22 10:18:50;;;;;;;26.15;12.98;;;;;;;32.33;68.71;100656.69;5081015;27;65472;-38
2022/10/22 10:21:37;;;;;;;22.77;12.65;;;;;;;32.47;68.33;100662.75;5087130;27;70183;-37
2022/10/22 10:24:21;;;;;;;23.67;13.85;;;;;;;33.06;67.88;100752.38;5085140;27;66491;-37
2022/10/22 10:27:17;;;;;;;25.67;17.02;;;;;;;33.08;68.15;100761.09;5085669;27;69818;-36
2022/10/22 10:30:08;;;;;;;28.00;17.52;;;;;;;33.08;68.16;100769.25;5087275;27;66303;-36
2022/10/22 10:33:04;;;;;;;35.63;18.03;;;;;;;33.15;67.60;100778.09;5094576;27;69869;-37
2022/10/22 10:35:46;;;;;;;30.67;18.95;;;;;;;33.13;67.78;100780.25;5091205;27;65619;-38
2022/10/22 10:38:16;;;;;;;;;;;;;;;32.90;68.63;100786.47;5092464;27;70169;-38
2022/10/22 10:40:51;;;;;;;37.28;21.63;;;;;;;33.15;67.38;100799.84;5094120;27;67304;-37
2022/10/22 10:43:34;;;;;;;30.88;20.90;;;;;;;33.19;67.18;100806.47;5086145;27;69523;-37
2022/10/22 10:46:27;;;;;;;30.77;21.40;;;;;;;33.17;67.36;100808.59;5095970;27;65563;-38
2022/10/22 10:49:10;;;;;;;45.88;24.73;;;;;;;32.27;67.50;100673.91;5067389;27;70508;-39
2022/10/22 10:52:17;;;;;;;37.20;24.60;;;;;;;33.08;67.83;100820.91;5089442;27;65367;-37
2022/10/22 10:55:19;;;;;;;34.13;24.58;;;;;;;33.07;67.79;100828.22;5086160;27;70561;-37
2022/10/22 10:58:14;;;;;;;38.08;25.83;;;;;;;32.75;67.40;100773.38;5105217;27;66726;-39
2022/10/22 11:01:23;;;;;;;36.30;25.35;;;;;;;33.02;67.20;100840.88;5090403;27;70070;-38
2022/10/22 11:04:13;;;;;;;38.80;26.48;;;;;;;33.10;66.72;100840.53;5064633;27;66478;-38
2022/10/22 11:06:46;;;;;;;57.30;33.80;;;;;;;32.98;66.78;100836.94;5084759;27;70178;-37
2022/10/22 11:09:38;;;;;;;57.50;33.13;;;;;;;32.49;66.79;100775.47;5098643;27;65396;-37
2022/10/22 11:12:21;;;;;;;62.05;33.72;;;;;;;32.65;66.60;100794.84;5097083;27;70126;-38
2022/10/22 11:15:13;;;;;;;48.97;31.40;;;;;;;32.95;66.86;100859.97;5102785;27;66618;-38
2022/10/22 11:17:45;;;;;;;;;;;;;;;32.69;67.98;100866.66;5099610;27;70026;-38
2022/10/22 11:21:04;;;;;;;52.15;28.63;;;;;;;32.46;67.49;100862.84;5086660;27;66320;-38
2022/10/22 11:23:55;;;;;;;31.70;20.50;;;;;;;31.87;67.03;100785.72;5085055;27;69763;-39
2022/10/22 11:26:59;;;;;;;32.15;20.30;;;;;;;31.78;67.03;100801.50;5081709;27;66186;-37
2022/10/22 11:29:38;;;;;;;34.83;19.65;;;;;;;32.22;68.00;100888.19;5086410;27;70160;-38
2022/10/22 11:32:18;;;;;;;27.42;18.98;;;;;;;32.08;66.74;100897.56;5085609;27;65261;-38
2022/10/22 11:34:56;;;;;;;24.73;17.80;;;;;;;31.32;65.77;100785.78;5086289;27;70160;-38
2022/10/22 11:37:34;;;;;;;20.23;16.75;;;;;;;31.74;64.74;100862.69;5091102;27;65850;-36
2022/10/22 11:40:21;;;;;;;17.17;15.45;;;;;;;31.65;63.46;100876.75;5086243;27;70850;-36
2022/10/22 11:43:03;;;;;;;20.02;15.98;;;;;;;31.49;63.28;100865.47;5084283;27;65374;-38
2022/10/22 11:45:41;;;;;;;17.67;14.50;;;;;;;31.53;62.42;100896.47;5089822;27;69701;-38
2022/10/22 11:48:18;;;;;;;14.55;13.32;;;;;;;31.46;61.88;100901.16;5084989;27;65783;-37
2022/10/22 11:50:56;;;;;;;15.10;13.60;;;;;;;31.37;60.97;100902.47;5082168;27;70911;-39
2022/10/22 11:53:38;;;;;;;15.02;13.27;;;;;;;30.74;60.22;100814.00;5089971;27;66439;-36
2022/10/22 11:56:12;;;;;;;14.75;12.55;;;;;;;31.26;60.00;100922.16;5084953;27;70526;-37
2022/10/22 11:58:46;;;;;;;13.15;11.95;;;;;;;31.17;59.45;100929.72;5088583;27;64979;-37